sensor_id;sensor_type;location;lat;lon;timestamp;temperature;humidity
19192;DHT22;9728;48.194;16.346;2023-02-22T00:02:48;19.90;59.10
19192;DHT22;9728;48.194;16.346;2023-02-22T00:07:52;19.90;59.10
19192;DHT22;9728;48.194;16.346;2023-02-22T00:12:59;19.90;59.10
19192;DHT22;9728;48.194;16.346;2023-02-22T00:18:03;19.80;59.10
19192;DHT22;9728;48.194;16.346;2023-02-22T00:23:13;19.80;59.10
19192;DHT22;9728;48.194;16.346;2023-02-22T00:28:18;19.80;59.20
19192;DHT22;9728;48.194;16.346;2023-02-22T00:33:21;19.80;59.30
19192;DHT22;9728;48.194;16.346;2023-02-22T00:38:25;19.70;59.30
19192;DHT22;9728;48.194;16.346;2023-02-22T00:43:30;19.70;59.30
19192;DHT22;9728;48.194;16.346;2023-02-22T00:48:33;19.70;59.40
19192;DHT22;9728;48.194;16.346;2023-02-22T00:53:37;19.60;59.30
19192;DHT22;9728;48.194;16.346;2023-02-22T00:58:41;19.60;59.40
19192;DHT22;9728;48.194;16.346;2023-02-22T01:03:45;19.60;59.40
19192;DHT22;9728;48.194;16.346;2023-02-22T01:08:50;19.60;59.40
19192;DHT22;9728;48.194;16.346;2023-02-22T01:13:55;19.60;59.40
19192;DHT22;9728;48.194;16.346;2023-02-22T01:18:58;19.60;59.30
19192;DHT22;9728;48.194;16.346;2023-02-22T01:24:03;19.60;59.40
19192;DHT22;9728;48.194;16.346;2023-02-22T01:29:08;19.60;59.40
19192;DHT22;9728;48.194;16.346;2023-02-22T01:34:16;19.60;59.30
19192;DHT22;9728;48.194;16.346;2023-02-22T01:39:19;19.60;59.40
19192;DHT22;9728;48.194;16.346;2023-02-22T01:44:29;19.60;59.30
19192;DHT22;9728;48.194;16.346;2023-02-22T01:49:37;19.60;59.40
19192;DHT22;9728;48.194;16.346;2023-02-22T01:54:44;19.60;59.30
19192;DHT22;9728;48.194;16.346;2023-02-22T01:59:53;19.60;59.40
19192;DHT22;9728;48.194;16.346;2023-02-22T02:04:59;19.60;59.20
19192;DHT22;9728;48.194;16.346;2023-02-22T02:10:04;19.60;59.30
19192;DHT22;9728;48.194;16.346;2023-02-22T02:15:22;19.50;59.20
19192;DHT22;9728;48.194;16.346;2023-02-22T02:20:30;19.50;59.20
19192;DHT22;9728;48.194;16.346;2023-02-22T02:26:10;19.50;59.20
19192;DHT22;9728;48.194;16.346;2023-02-22T02:37:05;19.50;59.20
19192;DHT22;9728;48.194;16.346;2023-02-22T02:42:14;19.50;59.30
19192;DHT22;9728;48.194;16.346;2023-02-22T02:47:21;19.50;59.30
19192;DHT22;9728;48.194;16.346;2023-02-22T02:52:28;19.50;59.40
19192;DHT22;9728;48.194;16.346;2023-02-22T02:57:33;19.50;59.30
19192;DHT22;9728;48.194;16.346;2023-02-22T03:02:46;19.50;59.40
19192;DHT22;9728;48.194;16.346;2023-02-22T03:07:58;19.50;59.40
19192;DHT22;9728;48.194;16.346;2023-02-22T03:13:08;19.50;59.50
19192;DHT22;9728;48.194;16.346;2023-02-22T03:18:21;19.50;59.50
19192;DHT22;9728;48.194;16.346;2023-02-22T03:23:36;19.50;59.60
19192;DHT22;9728;48.194;16.346;2023-02-22T03:28:41;19.50;59.40
19192;DHT22;9728;48.194;16.346;2023-02-22T03:33:52;19.50;59.40
19192;DHT22;9728;48.194;16.346;2023-02-22T03:39:00;19.50;59.40
19192;DHT22;9728;48.194;16.346;2023-02-22T03:44:09;19.50;59.40
19192;DHT22;9728;48.194;16.346;2023-02-22T03:49:18;19.50;59.40
19192;DHT22;9728;48.194;16.346;2023-02-22T03:54:29;19.50;59.40
19192;DHT22;9728;48.194;16.346;2023-02-22T03:59:33;19.50;59.50
19192;DHT22;9728;48.194;16.346;2023-02-22T04:04:37;19.50;59.40
19192;DHT22;9728;48.194;16.346;2023-02-22T04:09:42;19.50;59.40
19192;DHT22;9728;48.194;16.346;2023-02-22T04:14:46;19.50;59.30
19192;DHT22;9728;48.194;16.346;2023-02-22T04:19:49;19.50;59.30
19192;DHT22;9728;48.194;16.346;2023-02-22T04:24:58;19.50;59.20
19192;DHT22;9728;48.194;16.346;2023-02-22T04:30:02;19.50;59.10
19192;DHT22;9728;48.194;16.346;2023-02-22T04:35:08;19.50;59.10
19192;DHT22;9728;48.194;16.346;2023-02-22T04:40:16;19.50;59.10
19192;DHT22;9728;48.194;16.346;2023-02-22T04:45:21;19.40;59.00
19192;DHT22;9728;48.194;16.346;2023-02-22T04:50:24;19.40;59.10
19192;DHT22;9728;48.194;16.346;2023-02-22T04:55:31;19.40;59.10
19192;DHT22;9728;48.194;16.346;2023-02-22T05:00:35;19.40;59.20
19192;DHT22;9728;48.194;16.346;2023-02-22T05:05:40;19.40;59.20
19192;DHT22;9728;48.194;16.346;2023-02-22T05:10:44;19.40;59.20
19192;DHT22;9728;48.194;16.346;2023-02-22T05:15:48;19.40;59.30
19192;DHT22;9728;48.194;16.346;2023-02-22T05:20:51;19.40;59.40
19192;DHT22;9728;48.194;16.346;2023-02-22T05:25:56;19.40;59.50
19192;DHT22;9728;48.194;16.346;2023-02-22T05:30:59;19.40;59.60
19192;DHT22;9728;48.194;16.346;2023-02-22T05:36:03;19.30;59.60
19192;DHT22;9728;48.194;16.346;2023-02-22T05:41:08;19.30;59.60
19192;DHT22;9728;48.194;16.346;2023-02-22T05:46:12;19.30;59.60
19192;DHT22;9728;48.194;16.346;2023-02-22T05:51:16;19.30;59.60
19192;DHT22;9728;48.194;16.346;2023-02-22T05:56:24;19.30;59.60
19192;DHT22;9728;48.194;16.346;2023-02-22T06:01:27;19.20;59.80
19192;DHT22;9728;48.194;16.346;2023-02-22T06:06:30;19.20;59.70
19192;DHT22;9728;48.194;16.346;2023-02-22T06:11:35;19.20;59.70
19192;DHT22;9728;48.194;16.346;2023-02-22T06:16:39;19.20;59.70
19192;DHT22;9728;48.194;16.346;2023-02-22T06:21:48;19.20;59.70
19192;DHT22;9728;48.194;16.346;2023-02-22T06:26:56;19.20;60.10
19192;DHT22;9728;48.194;16.346;2023-02-22T06:31:59;19.20;60.10
19192;DHT22;9728;48.194;16.346;2023-02-22T06:37:03;19.20;59.90
19192;DHT22;9728;48.194;16.346;2023-02-22T06:42:08;19.20;60.10
19192;DHT22;9728;48.194;16.346;2023-02-22T06:47:11;19.30;60.30
19192;DHT22;9728;48.194;16.346;2023-02-22T06:52:15;19.30;60.30
19192;DHT22;9728;48.194;16.346;2023-02-22T06:57:20;19.20;60.30
19192;DHT22;9728;48.194;16.346;2023-02-22T07:02:23;19.30;60.50
19192;DHT22;9728;48.194;16.346;2023-02-22T07:07:27;19.30;60.50
19192;DHT22;9728;48.194;16.346;2023-02-22T07:12:32;19.30;60.50
19192;DHT22;9728;48.194;16.346;2023-02-22T07:17:36;19.30;60.50
19192;DHT22;9728;48.194;16.346;2023-02-22T07:22:42;19.30;60.30
19192;DHT22;9728;48.194;16.346;2023-02-22T07:27:47;19.40;60.40
19192;DHT22;9728;48.194;16.346;2023-02-22T07:32:51;19.40;60.20
19192;DHT22;9728;48.194;16.346;2023-02-22T07:37:55;19.40;60.20
19192;DHT22;9728;48.194;16.346;2023-02-22T07:43:01;19.40;60.30
19192;DHT22;9728;48.194;16.346;2023-02-22T07:48:08;19.40;60.40
19192;DHT22;9728;48.194;16.346;2023-02-22T07:53:12;19.40;60.30
19192;DHT22;9728;48.194;16.346;2023-02-22T07:58:20;19.50;60.20
19192;DHT22;9728;48.194;16.346;2023-02-22T08:03:25;19.50;60.40
19192;DHT22;9728;48.194;16.346;2023-02-22T08:08:28;19.60;60.40
19192;DHT22;9728;48.194;16.346;2023-02-22T08:13:33;19.60;60.50
19192;DHT22;9728;48.194;16.346;2023-02-22T08:18:38;19.60;60.40
19192;DHT22;9728;48.194;16.346;2023-02-22T08:23:42;19.70;60.20
19192;DHT22;9728;48.194;16.346;2023-02-22T08:28:47;19.70;60.20
19192;DHT22;9728;48.194;16.346;2023-02-22T08:33:51;19.80;60.10
19192;DHT22;9728;48.194;16.346;2023-02-22T08:38:55;19.80;60.10
19192;DHT22;9728;48.194;16.346;2023-02-22T08:44:00;19.90;60.10
19192;DHT22;9728;48.194;16.346;2023-02-22T08:49:04;20.00;59.90
19192;DHT22;9728;48.194;16.346;2023-02-22T08:54:08;20.00;59.80
19192;DHT22;9728;48.194;16.346;2023-02-22T08:59:13;20.10;59.90
19192;DHT22;9728;48.194;16.346;2023-02-22T09:04:17;20.10;59.50
19192;DHT22;9728;48.194;16.346;2023-02-22T09:09:20;20.20;59.60
19192;DHT22;9728;48.194;16.346;2023-02-22T09:14:25;20.30;59.50
19192;DHT22;9728;48.194;16.346;2023-02-22T09:19:28;20.30;59.40
19192;DHT22;9728;48.194;16.346;2023-02-22T09:24:32;20.40;59.30
19192;DHT22;9728;48.194;16.346;2023-02-22T09:29:36;20.50;59.20
19192;DHT22;9728;48.194;16.346;2023-02-22T09:34:40;20.50;59.00
19192;DHT22;9728;48.194;16.346;2023-02-22T09:39:46;20.60;59.00
19192;DHT22;9728;48.194;16.346;2023-02-22T09:44:55;20.60;58.70
19192;DHT22;9728;48.194;16.346;2023-02-22T09:50:04;20.70;58.50
19192;DHT22;9728;48.194;16.346;2023-02-22T09:55:27;20.70;58.80
19192;DHT22;9728;48.194;16.346;2023-02-22T10:00:39;20.80;58.90
19192;DHT22;9728;48.194;16.346;2023-02-22T10:05:50;20.80;59.10
19192;DHT22;9728;48.194;16.346;2023-02-22T10:11:05;20.80;59.30
19192;DHT22;9728;48.194;16.346;2023-02-22T10:16:16;20.90;59.20
19192;DHT22;9728;48.194;16.346;2023-02-22T10:21:34;20.90;59.10
19192;DHT22;9728;48.194;16.346;2023-02-22T10:26:41;21.00;58.90
19192;DHT22;9728;48.194;16.346;2023-02-22T10:31:51;21.00;59.00
19192;DHT22;9728;48.194;16.346;2023-02-22T10:36:59;21.10;58.70
19192;DHT22;9728;48.194;16.346;2023-02-22T10:42:07;21.10;58.70
19192;DHT22;9728;48.194;16.346;2023-02-22T10:47:13;21.20;59.40
19192;DHT22;9728;48.194;16.346;2023-02-22T10:52:24;21.20;58.60
19192;DHT22;9728;48.194;16.346;2023-02-22T10:57:30;21.30;58.40
19192;DHT22;9728;48.194;16.346;2023-02-22T11:02:35;21.40;58.40
19192;DHT22;9728;48.194;16.346;2023-02-22T11:07:39;21.50;58.40
19192;DHT22;9728;48.194;16.346;2023-02-22T11:12:43;21.60;58.40
19192;DHT22;9728;48.194;16.346;2023-02-22T11:17:53;21.70;58.40
19192;DHT22;9728;48.194;16.346;2023-02-22T11:23:00;21.90;58.00
19192;DHT22;9728;48.194;16.346;2023-02-22T11:28:09;22.00;57.80
19192;DHT22;9728;48.194;16.346;2023-02-22T11:33:20;22.10;57.60
19192;DHT22;9728;48.194;16.346;2023-02-22T11:38:26;22.30;57.30
19192;DHT22;9728;48.194;16.346;2023-02-22T11:43:30;22.30;57.20
19192;DHT22;9728;48.194;16.346;2023-02-22T11:48:37;22.30;57.20
19192;DHT22;9728;48.194;16.346;2023-02-22T11:53:59;22.40;57.00
19192;DHT22;9728;48.194;16.346;2023-02-22T11:59:13;22.40;56.70
19192;DHT22;9728;48.194;16.346;2023-02-22T12:09:50;22.40;56.30
19192;DHT22;9728;48.194;16.346;2023-02-22T12:15:01;22.40;56.60
19192;DHT22;9728;48.194;16.346;2023-02-22T12:20:14;22.40;56.60
19192;DHT22;9728;48.194;16.346;2023-02-22T12:25:24;22.40;56.60
19192;DHT22;9728;48.194;16.346;2023-02-22T12:30:33;22.40;56.80
19192;DHT22;9728;48.194;16.346;2023-02-22T12:35:42;22.40;56.60
19192;DHT22;9728;48.194;16.346;2023-02-22T12:40:52;22.40;56.60
19192;DHT22;9728;48.194;16.346;2023-02-22T12:46:03;22.40;56.40
19192;DHT22;9728;48.194;16.346;2023-02-22T12:51:18;22.40;56.40
19192;DHT22;9728;48.194;16.346;2023-02-22T12:56:29;22.30;56.30
19192;DHT22;9728;48.194;16.346;2023-02-22T13:01:37;22.30;56.50
19192;DHT22;9728;48.194;16.346;2023-02-22T13:06:51;22.30;57.20
19192;DHT22;9728;48.194;16.346;2023-02-22T13:12:01;22.30;56.20
19192;DHT22;9728;48.194;16.346;2023-02-22T13:17:14;22.30;56.30
19192;DHT22;9728;48.194;16.346;2023-02-22T13:22:28;22.30;56.10
19192;DHT22;9728;48.194;16.346;2023-02-22T13:27:39;22.20;56.00
19192;DHT22;9728;48.194;16.346;2023-02-22T13:38:40;22.20;55.80
19192;DHT22;9728;48.194;16.346;2023-02-22T13:49:26;22.00;55.80
19192;DHT22;9728;48.194;16.346;2023-02-22T13:54:38;22.00;55.80
19192;DHT22;9728;48.194;16.346;2023-02-22T13:59:43;22.00;55.90
19192;DHT22;9728;48.194;16.346;2023-02-22T14:04:48;21.90;56.10
19192;DHT22;9728;48.194;16.346;2023-02-22T14:09:53;21.90;56.00
19192;DHT22;9728;48.194;16.346;2023-02-22T14:15:13;21.90;55.90
19192;DHT22;9728;48.194;16.346;2023-02-22T14:20:32;21.80;55.50
19192;DHT22;9728;48.194;16.346;2023-02-22T14:25:40;21.80;55.80
19192;DHT22;9728;48.194;16.346;2023-02-22T14:30:44;21.70;55.80
19192;DHT22;9728;48.194;16.346;2023-02-22T14:35:48;21.60;56.00
19192;DHT22;9728;48.194;16.346;2023-02-22T14:40:57;21.60;55.90
19192;DHT22;9728;48.194;16.346;2023-02-22T14:46:04;21.60;55.80
19192;DHT22;9728;48.194;16.346;2023-02-22T14:51:15;21.50;55.90
19192;DHT22;9728;48.194;16.346;2023-02-22T14:56:29;21.50;55.80
19192;DHT22;9728;48.194;16.346;2023-02-22T15:01:37;21.40;55.80
19192;DHT22;9728;48.194;16.346;2023-02-22T15:07:13;21.40;55.90
19192;DHT22;9728;48.194;16.346;2023-02-22T15:12:26;21.40;56.00
19192;DHT22;9728;48.194;16.346;2023-02-22T15:17:31;21.30;55.90
19192;DHT22;9728;48.194;16.346;2023-02-22T15:22:35;21.30;56.20
19192;DHT22;9728;48.194;16.346;2023-02-22T15:27:44;21.20;56.20
19192;DHT22;9728;48.194;16.346;2023-02-22T15:32:48;21.20;56.20
19192;DHT22;9728;48.194;16.346;2023-02-22T15:38:11;21.10;56.30
19192;DHT22;9728;48.194;16.346;2023-02-22T15:43:24;21.10;56.40
19192;DHT22;9728;48.194;16.346;2023-02-22T15:48:29;21.10;56.40
19192;DHT22;9728;48.194;16.346;2023-02-22T15:53:39;21.00;56.40
19192;DHT22;9728;48.194;16.346;2023-02-22T15:58:46;21.00;56.60
19192;DHT22;9728;48.194;16.346;2023-02-22T16:03:52;20.90;56.60
19192;DHT22;9728;48.194;16.346;2023-02-22T16:08:58;20.90;56.70
19192;DHT22;9728;48.194;16.346;2023-02-22T16:14:21;20.80;56.70
19192;DHT22;9728;48.194;16.346;2023-02-22T16:19:28;20.80;56.70
19192;DHT22;9728;48.194;16.346;2023-02-22T16:24:35;20.80;56.80
19192;DHT22;9728;48.194;16.346;2023-02-22T16:29:40;20.70;56.80
19192;DHT22;9728;48.194;16.346;2023-02-22T16:34:44;20.60;56.90
19192;DHT22;9728;48.194;16.346;2023-02-22T16:39:49;20.70;60.10
19192;DHT22;9728;48.194;16.346;2023-02-22T16:44:55;20.80;59.70
19192;DHT22;9728;48.194;16.346;2023-02-22T16:49:59;21.10;58.80
19192;DHT22;9728;48.194;16.346;2023-02-22T16:55:04;21.30;58.20
19192;DHT22;9728;48.194;16.346;2023-02-22T17:00:14;21.30;57.70
19192;DHT22;9728;48.194;16.346;2023-02-22T17:05:18;21.40;57.20
19192;DHT22;9728;48.194;16.346;2023-02-22T17:10:22;21.30;57.10
19192;DHT22;9728;48.194;16.346;2023-02-22T17:15:31;21.20;57.00
19192;DHT22;9728;48.194;16.346;2023-02-22T17:20:37;21.20;56.90
19192;DHT22;9728;48.194;16.346;2023-02-22T17:25:42;21.10;56.90
19192;DHT22;9728;48.194;16.346;2023-02-22T17:30:48;21.00;56.90
19192;DHT22;9728;48.194;16.346;2023-02-22T17:35:54;20.90;56.90
19192;DHT22;9728;48.194;16.346;2023-02-22T17:41:01;20.80;57.00
19192;DHT22;9728;48.194;16.346;2023-02-22T17:46:09;20.70;57.00
19192;DHT22;9728;48.194;16.346;2023-02-22T17:51:13;20.60;57.10
19192;DHT22;9728;48.194;16.346;2023-02-22T17:56:19;20.50;57.10
19192;DHT22;9728;48.194;16.346;2023-02-22T18:01:27;20.40;57.10
19192;DHT22;9728;48.194;16.346;2023-02-22T18:06:33;20.40;57.30
19192;DHT22;9728;48.194;16.346;2023-02-22T18:11:38;20.30;57.30
19192;DHT22;9728;48.194;16.346;2023-02-22T18:16:46;20.20;57.40
19192;DHT22;9728;48.194;16.346;2023-02-22T18:21:50;20.20;57.60
19192;DHT22;9728;48.194;16.346;2023-02-22T18:26:54;20.10;57.60
19192;DHT22;9728;48.194;16.346;2023-02-22T18:32:01;20.00;57.60
19192;DHT22;9728;48.194;16.346;2023-02-22T18:37:06;19.90;57.70
19192;DHT22;9728;48.194;16.346;2023-02-22T18:42:11;19.90;57.80
19192;DHT22;9728;48.194;16.346;2023-02-22T18:47:20;19.80;57.80
19192;DHT22;9728;48.194;16.346;2023-02-22T18:52:25;19.80;58.00
19192;DHT22;9728;48.194;16.346;2023-02-22T18:57:34;19.70;58.00
19192;DHT22;9728;48.194;16.346;2023-02-22T19:02:40;19.70;58.10
19192;DHT22;9728;48.194;16.346;2023-02-22T19:07:48;19.60;58.10
19192;DHT22;9728;48.194;16.346;2023-02-22T19:12:54;19.60;61.60
19192;DHT22;9728;48.194;16.346;2023-02-22T19:18:02;19.70;60.20
19192;DHT22;9728;48.194;16.346;2023-02-22T19:23:11;19.80;59.60
19192;DHT22;9728;48.194;16.346;2023-02-22T19:28:16;19.90;59.10
19192;DHT22;9728;48.194;16.346;2023-02-22T19:33:23;19.90;58.90
19192;DHT22;9728;48.194;16.346;2023-02-22T19:38:28;19.90;58.70
19192;DHT22;9728;48.194;16.346;2023-02-22T19:43:33;19.80;58.60
19192;DHT22;9728;48.194;16.346;2023-02-22T19:48:41;19.70;58.60
19192;DHT22;9728;48.194;16.346;2023-02-22T19:53:47;19.60;58.70
19192;DHT22;9728;48.194;16.346;2023-02-22T19:58:53;19.50;58.80
19192;DHT22;9728;48.194;16.346;2023-02-22T20:04:02;19.40;58.90
19192;DHT22;9728;48.194;16.346;2023-02-22T20:09:09;19.30;59.10
19192;DHT22;9728;48.194;16.346;2023-02-22T20:14:18;19.30;59.10
19192;DHT22;9728;48.194;16.346;2023-02-22T20:19:30;19.20;59.20
19192;DHT22;9728;48.194;16.346;2023-02-22T20:24:35;19.10;59.30
19192;DHT22;9728;48.194;16.346;2023-02-22T20:29:41;19.00;59.10
19192;DHT22;9728;48.194;16.346;2023-02-22T20:34:50;19.00;59.20
19192;DHT22;9728;48.194;16.346;2023-02-22T20:39:55;18.90;59.40
19192;DHT22;9728;48.194;16.346;2023-02-22T20:45:02;18.80;59.30
19192;DHT22;9728;48.194;16.346;2023-02-22T20:50:10;18.70;59.30
19192;DHT22;9728;48.194;16.346;2023-02-22T20:55:16;18.60;59.50
19192;DHT22;9728;48.194;16.346;2023-02-22T21:00:21;18.60;59.50
19192;DHT22;9728;48.194;16.346;2023-02-22T21:05:28;18.50;59.60
19192;DHT22;9728;48.194;16.346;2023-02-22T21:10:40;18.40;59.90
19192;DHT22;9728;48.194;16.346;2023-02-22T21:15:47;18.30;60.60
19192;DHT22;9728;48.194;16.346;2023-02-22T21:21:00;18.20;60.00
19192;DHT22;9728;48.194;16.346;2023-02-22T21:26:11;18.20;60.40
19192;DHT22;9728;48.194;16.346;2023-02-22T21:31:17;18.10;60.40
19192;DHT22;9728;48.194;16.346;2023-02-22T21:36:26;18.10;60.40
19192;DHT22;9728;48.194;16.346;2023-02-22T21:41:31;18.00;60.60
19192;DHT22;9728;48.194;16.346;2023-02-22T21:46:36;18.00;60.50
19192;DHT22;9728;48.194;16.346;2023-02-22T21:51:43;17.90;60.60
19192;DHT22;9728;48.194;16.346;2023-02-22T21:56:47;17.90;60.80
19192;DHT22;9728;48.194;16.346;2023-02-22T22:01:52;17.90;60.90
19192;DHT22;9728;48.194;16.346;2023-02-22T22:07:00;17.80;60.80
19192;DHT22;9728;48.194;16.346;2023-02-22T22:12:05;17.80;61.10
19192;DHT22;9728;48.194;16.346;2023-02-22T22:17:10;17.70;61.00
19192;DHT22;9728;48.194;16.346;2023-02-22T22:22:15;17.70;61.20
19192;DHT22;9728;48.194;16.346;2023-02-22T22:27:18;17.60;61.20
19192;DHT22;9728;48.194;16.346;2023-02-22T22:32:23;17.60;61.20
19192;DHT22;9728;48.194;16.346;2023-02-22T22:37:28;17.60;61.60
19192;DHT22;9728;48.194;16.346;2023-02-22T22:42:31;17.50;61.70
19192;DHT22;9728;48.194;16.346;2023-02-22T22:47:35;17.50;61.60
19192;DHT22;9728;48.194;16.346;2023-02-22T22:52:40;17.50;61.70
19192;DHT22;9728;48.194;16.346;2023-02-22T22:57:43;17.50;62.00
19192;DHT22;9728;48.194;16.346;2023-02-22T23:02:46;17.50;61.80
19192;DHT22;9728;48.194;16.346;2023-02-22T23:07:52;17.40;61.80
19192;DHT22;9728;48.194;16.346;2023-02-22T23:12:58;17.40;62.00
19192;DHT22;9728;48.194;16.346;2023-02-22T23:18:02;17.40;62.00
19192;DHT22;9728;48.194;16.346;2023-02-22T23:23:09;17.30;62.00
19192;DHT22;9728;48.194;16.346;2023-02-22T23:28:16;17.30;62.20
19192;DHT22;9728;48.194;16.346;2023-02-22T23:33:19;17.30;63.00
19192;DHT22;9728;48.194;16.346;2023-02-22T23:38:24;17.30;62.20
19192;DHT22;9728;48.194;16.346;2023-02-22T23:43:27;17.30;62.40
19192;DHT22;9728;48.194;16.346;2023-02-22T23:48:34;17.20;62.20
19192;DHT22;9728;48.194;16.346;2023-02-22T23:53:40;17.20;62.30
19192;DHT22;9728;48.194;16.346;2023-02-22T23:58:48;17.10;62.40
